sensor_id;sensor_type;location;lat;lon;timestamp;pressure;altitude;pressure_sealevel;temperature;humidity
53041;BME280;39326;42.650;23.248;2022-12-05T00:00:11;93403.66;;;3.43;88.69
53041;BME280;39326;42.650;23.248;2022-12-05T00:02:36;93409.22;;;3.50;88.72
53041;BME280;39326;42.650;23.248;2022-12-05T00:05:02;93415.94;;;3.30;89.10
53041;BME280;39326;42.650;23.248;2022-12-05T00:07:28;93419.69;;;3.29;89.42
53041;BME280;39326;42.650;23.248;2022-12-05T00:09:53;93419.25;;;3.19;89.81
53041;BME280;39326;42.650;23.248;2022-12-05T00:12:18;93418.88;;;3.29;89.26
53041;BME280;39326;42.650;23.248;2022-12-05T00:14:44;93422.72;;;3.40;89.37
53041;BME280;39326;42.650;23.248;2022-12-05T00:17:09;93411.44;;;3.31;89.09
53041;BME280;39326;42.650;23.248;2022-12-05T00:19:35;93413.66;;;3.20;89.35
53041;BME280;39326;42.650;23.248;2022-12-05T00:22:00;93412.59;;;3.13;90.65
53041;BME280;39326;42.650;23.248;2022-12-05T00:24:25;93419.06;;;3.24;90.31
53041;BME280;39326;42.650;23.248;2022-12-05T00:26:51;93422.31;;;3.29;89.71
53041;BME280;39326;42.650;23.248;2022-12-05T00:29:16;93427.44;;;3.26;90.05
53041;BME280;39326;42.650;23.248;2022-12-05T00:31:42;93436.28;;;3.21;90.00
53041;BME280;39326;42.650;23.248;2022-12-05T00:34:08;93429.31;;;3.08;90.57
53041;BME280;39326;42.650;23.248;2022-12-05T00:36:34;93436.13;;;3.18;90.55
53041;BME280;39326;42.650;23.248;2022-12-05T00:39:08;93437.53;;;3.24;89.70
53041;BME280;39326;42.650;23.248;2022-12-05T00:41:35;93433.75;;;3.33;89.52
53041;BME280;39326;42.650;23.248;2022-12-05T00:44:02;93432.22;;;3.32;89.41
53041;BME280;39326;42.650;23.248;2022-12-05T00:46:29;93435.34;;;3.26;89.75
53041;BME280;39326;42.650;23.248;2022-12-05T00:48:56;93430.84;;;3.26;89.96
53041;BME280;39326;42.650;23.248;2022-12-05T00:51:28;93424.47;;;3.36;89.56
53041;BME280;39326;42.650;23.248;2022-12-05T00:53:56;93410.78;;;3.43;88.66
53041;BME280;39326;42.650;23.248;2022-12-05T00:56:23;93419.31;;;3.48;88.72
53041;BME280;39326;42.650;23.248;2022-12-05T00:58:50;93407.22;;;3.39;89.15
53041;BME280;39326;42.650;23.248;2022-12-05T01:01:18;93409.25;;;3.42;88.97
53041;BME280;39326;42.650;23.248;2022-12-05T01:03:44;93411.13;;;3.32;88.95
53041;BME280;39326;42.650;23.248;2022-12-05T01:06:11;93407.75;;;3.23;89.87
53041;BME280;39326;42.650;23.248;2022-12-05T01:08:37;93408.97;;;3.26;89.86
53041;BME280;39326;42.650;23.248;2022-12-05T01:11:03;93406.03;;;3.27;89.78
53041;BME280;39326;42.650;23.248;2022-12-05T01:13:29;93409.44;;;3.28;89.54
53041;BME280;39326;42.650;23.248;2022-12-05T01:15:55;93401.22;;;3.29;90.15
53041;BME280;39326;42.650;23.248;2022-12-05T01:18:22;93406.50;;;3.29;89.55
53041;BME280;39326;42.650;23.248;2022-12-05T01:20:48;93401.19;;;3.38;89.48
53041;BME280;39326;42.650;23.248;2022-12-05T01:23:14;93397.75;;;3.46;89.09
53041;BME280;39326;42.650;23.248;2022-12-05T01:25:45;93387.84;;;3.43;88.83
53041;BME280;39326;42.650;23.248;2022-12-05T01:28:11;93381.78;;;3.43;88.99
53041;BME280;39326;42.650;23.248;2022-12-05T01:30:38;93385.47;;;3.50;88.91
53041;BME280;39326;42.650;23.248;2022-12-05T01:33:04;93390.09;;;3.24;90.20
53041;BME280;39326;42.650;23.248;2022-12-05T01:35:38;93385.53;;;3.33;89.39
53041;BME280;39326;42.650;23.248;2022-12-05T01:38:04;93386.06;;;3.09;90.00
53041;BME280;39326;42.650;23.248;2022-12-05T01:40:31;93390.16;;;2.98;91.22
53041;BME280;39326;42.650;23.248;2022-12-05T01:42:58;93380.81;;;3.18;89.84
53041;BME280;39326;42.650;23.248;2022-12-05T01:45:35;93379.22;;;3.25;89.71
53041;BME280;39326;42.650;23.248;2022-12-05T01:48:05;93382.19;;;3.15;89.78
53041;BME280;39326;42.650;23.248;2022-12-05T01:50:33;93378.00;;;3.23;90.05
53041;BME280;39326;42.650;23.248;2022-12-05T01:52:58;93381.09;;;3.16;90.22
53041;BME280;39326;42.650;23.248;2022-12-05T01:55:24;93383.88;;;3.20;89.55
53041;BME280;39326;42.650;23.248;2022-12-05T01:57:50;93376.19;;;3.06;90.05
53041;BME280;39326;42.650;23.248;2022-12-05T02:00:18;93370.72;;;3.20;89.78
53041;BME280;39326;42.650;23.248;2022-12-05T02:02:53;93376.41;;;3.30;89.15
53041;BME280;39326;42.650;23.248;2022-12-05T02:05:24;93353.06;;;3.12;89.13
53041;BME280;39326;42.650;23.248;2022-12-05T02:07:51;93376.72;;;3.29;89.84
53041;BME280;39326;42.650;23.248;2022-12-05T02:10:17;93392.44;;;3.17;89.41
53041;BME280;39326;42.650;23.248;2022-12-05T02:12:44;93392.88;;;3.10;89.33
53041;BME280;39326;42.650;23.248;2022-12-05T02:29:00;93383.22;;;3.31;89.59
53041;BME280;39326;42.650;23.248;2022-12-05T02:31:37;93383.75;;;3.07;90.05
53041;BME280;39326;42.650;23.248;2022-12-05T02:36:53;93387.25;;;3.29;89.28
53041;BME280;39326;42.650;23.248;2022-12-05T02:42:21;93366.00;;;3.34;89.26
53041;BME280;39326;42.650;23.248;2022-12-05T02:44:55;93360.44;;;3.36;88.86
53041;BME280;39326;42.650;23.248;2022-12-05T02:47:25;93364.59;;;3.37;89.27
53041;BME280;39326;42.650;23.248;2022-12-05T02:49:53;93360.59;;;3.30;89.72
53041;BME280;39326;42.650;23.248;2022-12-05T02:52:20;93361.75;;;3.12;89.56
53041;BME280;39326;42.650;23.248;2022-12-05T02:54:48;93363.50;;;2.99;90.02
53041;BME280;39326;42.650;23.248;2022-12-05T02:57:15;93362.16;;;2.76;90.93
53041;BME280;39326;42.650;23.248;2022-12-05T02:59:41;93365.72;;;2.71;91.36
53041;BME280;39326;42.650;23.248;2022-12-05T03:02:08;93364.63;;;2.72;91.30
53041;BME280;39326;42.650;23.248;2022-12-05T03:04:34;93358.88;;;2.88;90.84
53041;BME280;39326;42.650;23.248;2022-12-05T03:07:03;93352.94;;;2.99;90.38
53041;BME280;39326;42.650;23.248;2022-12-05T03:09:38;93358.97;;;3.08;90.17
53041;BME280;39326;42.650;23.248;2022-12-05T03:14:38;93366.66;;;3.22;89.35
53041;BME280;39326;42.650;23.248;2022-12-05T03:17:09;93360.66;;;3.13;89.83
53041;BME280;39326;42.650;23.248;2022-12-05T03:19:57;93360.97;;;3.12;90.06
53041;BME280;39326;42.650;23.248;2022-12-05T03:24:49;93368.41;;;3.10;89.55
53041;BME280;39326;42.650;23.248;2022-12-05T03:27:26;93367.91;;;3.16;89.70
53041;BME280;39326;42.650;23.248;2022-12-05T03:30:04;93374.13;;;3.20;89.34
53041;BME280;39326;42.650;23.248;2022-12-05T03:35:13;93368.34;;;3.27;89.15
53041;BME280;39326;42.650;23.248;2022-12-05T03:38:00;93367.91;;;3.25;89.64
53041;BME280;39326;42.650;23.248;2022-12-05T03:40:37;93372.09;;;3.26;89.38
53041;BME280;39326;42.650;23.248;2022-12-05T03:45:46;93374.63;;;3.05;89.95
53041;BME280;39326;42.650;23.248;2022-12-05T03:48:25;93375.91;;;2.99;90.67
53041;BME280;39326;42.650;23.248;2022-12-05T03:50:55;93369.19;;;3.10;90.28
53041;BME280;39326;42.650;23.248;2022-12-05T03:53:26;93365.13;;;3.21;89.86
53041;BME280;39326;42.650;23.248;2022-12-05T03:56:01;93375.16;;;3.28;89.37
53041;BME280;39326;42.650;23.248;2022-12-05T03:58:33;93375.94;;;3.28;89.77
53041;BME280;39326;42.650;23.248;2022-12-05T04:01:02;93382.91;;;3.33;89.28
53041;BME280;39326;42.650;23.248;2022-12-05T04:03:53;93378.09;;;3.35;88.84
53041;BME280;39326;42.650;23.248;2022-12-05T04:06:33;93365.53;;;3.32;88.76
53041;BME280;39326;42.650;23.248;2022-12-05T04:09:25;93366.75;;;3.34;88.97
53041;BME280;39326;42.650;23.248;2022-12-05T04:11:56;93361.19;;;3.36;88.88
53041;BME280;39326;42.650;23.248;2022-12-05T04:14:31;93351.09;;;3.38;88.78
53041;BME280;39326;42.650;23.248;2022-12-05T04:19:46;93347.00;;;3.20;89.90
53041;BME280;39326;42.650;23.248;2022-12-05T04:22:31;93342.75;;;3.27;89.42
53041;BME280;39326;42.650;23.248;2022-12-05T04:24:59;93349.78;;;3.23;89.54
53041;BME280;39326;42.650;23.248;2022-12-05T04:27:53;93344.47;;;3.32;88.55
53041;BME280;39326;42.650;23.248;2022-12-05T04:30:25;93351.78;;;3.26;89.01
53041;BME280;39326;42.650;23.248;2022-12-05T04:35:36;93355.72;;;3.12;89.88
53041;BME280;39326;42.650;23.248;2022-12-05T04:38:12;93357.09;;;3.18;89.15
53041;BME280;39326;42.650;23.248;2022-12-05T04:40:45;93356.28;;;3.26;88.90
53041;BME280;39326;42.650;23.248;2022-12-05T04:43:14;93356.31;;;3.17;89.70
53041;BME280;39326;42.650;23.248;2022-12-05T04:45:41;93364.22;;;3.17;89.22
53041;BME280;39326;42.650;23.248;2022-12-05T04:48:12;93359.22;;;3.24;89.35
53041;BME280;39326;42.650;23.248;2022-12-05T04:50:40;93365.44;;;3.20;88.80
53041;BME280;39326;42.650;23.248;2022-12-05T04:53:08;93365.47;;;3.02;89.57
53041;BME280;39326;42.650;23.248;2022-12-05T04:55:35;93374.31;;;3.06;89.40
53041;BME280;39326;42.650;23.248;2022-12-05T04:58:10;93373.78;;;3.22;88.51
53041;BME280;39326;42.650;23.248;2022-12-05T05:00:49;93374.41;;;3.27;88.32
53041;BME280;39326;42.650;23.248;2022-12-05T05:03:23;93372.69;;;3.31;88.36
53041;BME280;39326;42.650;23.248;2022-12-05T05:05:52;93383.84;;;3.28;88.49
53041;BME280;39326;42.650;23.248;2022-12-05T05:08:21;93381.25;;;3.20;88.69
53041;BME280;39326;42.650;23.248;2022-12-05T05:10:53;93363.63;;;3.03;89.26
53041;BME280;39326;42.650;23.248;2022-12-05T05:13:21;93391.06;;;3.11;89.40
53041;BME280;39326;42.650;23.248;2022-12-05T05:15:46;93396.59;;;3.18;89.01
53041;BME280;39326;42.650;23.248;2022-12-05T05:18:12;93398.13;;;3.27;88.19
53041;BME280;39326;42.650;23.248;2022-12-05T05:20:37;93394.09;;;3.30;87.93
53041;BME280;39326;42.650;23.248;2022-12-05T05:23:03;93395.63;;;3.31;88.39
53041;BME280;39326;42.650;23.248;2022-12-05T05:25:28;93391.47;;;3.21;87.83
53041;BME280;39326;42.650;23.248;2022-12-05T05:27:54;93399.50;;;3.33;88.11
53041;BME280;39326;42.650;23.248;2022-12-05T05:30:22;93395.63;;;3.31;88.21
53041;BME280;39326;42.650;23.248;2022-12-05T05:32:48;93404.66;;;3.21;88.77
53041;BME280;39326;42.650;23.248;2022-12-05T05:35:14;93405.16;;;2.97;89.20
53041;BME280;39326;42.650;23.248;2022-12-05T05:37:40;93401.28;;;3.03;89.79
53041;BME280;39326;42.650;23.248;2022-12-05T05:40:08;93402.03;;;3.13;88.78
53041;BME280;39326;42.650;23.248;2022-12-05T05:42:34;93397.09;;;3.11;89.37
53041;BME280;39326;42.650;23.248;2022-12-05T05:45:00;93401.91;;;3.00;89.11
53041;BME280;39326;42.650;23.248;2022-12-05T05:47:25;93409.03;;;2.91;90.15
53041;BME280;39326;42.650;23.248;2022-12-05T05:49:51;93413.88;;;2.98;90.06
53041;BME280;39326;42.650;23.248;2022-12-05T05:52:16;93411.03;;;3.12;89.76
53041;BME280;39326;42.650;23.248;2022-12-05T05:54:41;93411.00;;;3.20;89.19
53041;BME280;39326;42.650;23.248;2022-12-05T05:57:07;93406.88;;;3.11;88.89
53041;BME280;39326;42.650;23.248;2022-12-05T05:59:32;93419.25;;;3.19;88.89
53041;BME280;39326;42.650;23.248;2022-12-05T06:01:58;93415.97;;;3.22;88.87
53041;BME280;39326;42.650;23.248;2022-12-05T06:04:23;93419.41;;;3.14;89.94
53041;BME280;39326;42.650;23.248;2022-12-05T06:06:49;93424.63;;;3.22;89.05
53041;BME280;39326;42.650;23.248;2022-12-05T06:09:14;93419.03;;;3.32;88.49
53041;BME280;39326;42.650;23.248;2022-12-05T06:11:40;93412.34;;;3.35;88.61
53041;BME280;39326;42.650;23.248;2022-12-05T06:14:05;93421.19;;;3.39;88.98
53041;BME280;39326;42.650;23.248;2022-12-05T06:16:31;93418.69;;;3.43;88.69
53041;BME280;39326;42.650;23.248;2022-12-05T06:18:57;93423.34;;;3.46;88.27
53041;BME280;39326;42.650;23.248;2022-12-05T06:21:23;93409.53;;;3.49;88.49
53041;BME280;39326;42.650;23.248;2022-12-05T06:23:49;93424.88;;;3.47;88.87
53041;BME280;39326;42.650;23.248;2022-12-05T06:26:19;93425.03;;;3.50;88.28
53041;BME280;39326;42.650;23.248;2022-12-05T06:28:45;93425.66;;;3.47;88.89
53041;BME280;39326;42.650;23.248;2022-12-05T06:31:15;93419.75;;;3.50;88.43
53041;BME280;39326;42.650;23.248;2022-12-05T06:33:42;93431.06;;;3.51;88.41
53041;BME280;39326;42.650;23.248;2022-12-05T06:36:14;93423.16;;;3.51;88.43
53041;BME280;39326;42.650;23.248;2022-12-05T06:38:39;93420.06;;;3.49;88.49
53041;BME280;39326;42.650;23.248;2022-12-05T06:41:12;93424.09;;;3.46;88.87
53041;BME280;39326;42.650;23.248;2022-12-05T06:43:38;93426.91;;;3.50;88.75
53041;BME280;39326;42.650;23.248;2022-12-05T06:46:05;93428.28;;;3.47;88.80
53041;BME280;39326;42.650;23.248;2022-12-05T06:48:31;93431.84;;;3.51;88.68
53041;BME280;39326;42.650;23.248;2022-12-05T06:50:56;93424.81;;;3.64;88.46
53041;BME280;39326;42.650;23.248;2022-12-05T06:53:22;93426.03;;;3.67;88.01
53041;BME280;39326;42.650;23.248;2022-12-05T06:55:58;93424.84;;;3.55;88.86
53041;BME280;39326;42.650;23.248;2022-12-05T06:58:25;93433.38;;;3.52;88.74
53041;BME280;39326;42.650;23.248;2022-12-05T07:00:51;93429.97;;;3.52;89.42
53041;BME280;39326;42.650;23.248;2022-12-05T07:03:35;93435.91;;;3.40;89.53
53041;BME280;39326;42.650;23.248;2022-12-05T07:06:02;93417.22;;;3.24;90.42
53041;BME280;39326;42.650;23.248;2022-12-05T07:08:28;93434.47;;;3.51;89.27
53041;BME280;39326;42.650;23.248;2022-12-05T07:10:53;93425.34;;;3.49;88.78
53041;BME280;39326;42.650;23.248;2022-12-05T07:13:19;93438.53;;;3.49;90.06
53041;BME280;39326;42.650;23.248;2022-12-05T07:15:48;93436.66;;;3.49;89.35
53041;BME280;39326;42.650;23.248;2022-12-05T07:18:15;93432.78;;;3.47;89.61
53041;BME280;39326;42.650;23.248;2022-12-05T07:20:41;93434.03;;;3.41;89.81
53041;BME280;39326;42.650;23.248;2022-12-05T07:23:07;93444.63;;;3.32;90.86
53041;BME280;39326;42.650;23.248;2022-12-05T07:25:33;93442.25;;;3.48;89.99
53041;BME280;39326;42.650;23.248;2022-12-05T07:27:58;93449.78;;;3.67;89.44
53041;BME280;39326;42.650;23.248;2022-12-05T07:30:23;93443.22;;;3.73;89.34
53041;BME280;39326;42.650;23.248;2022-12-05T07:32:49;93443.72;;;3.75;89.35
53041;BME280;39326;42.650;23.248;2022-12-05T07:35:14;93438.97;;;3.89;88.55
53041;BME280;39326;42.650;23.248;2022-12-05T07:37:40;93435.72;;;3.92;88.61
53041;BME280;39326;42.650;23.248;2022-12-05T07:40:06;93440.00;;;4.05;88.00
53041;BME280;39326;42.650;23.248;2022-12-05T07:42:32;93427.84;;;4.04;88.01
53041;BME280;39326;42.650;23.248;2022-12-05T07:44:57;93447.88;;;4.14;87.70
53041;BME280;39326;42.650;23.248;2022-12-05T07:47:22;93446.34;;;4.04;87.84
53041;BME280;39326;42.650;23.248;2022-12-05T07:49:48;93454.97;;;3.93;88.50
53041;BME280;39326;42.650;23.248;2022-12-05T07:52:13;93451.63;;;4.04;88.15
53041;BME280;39326;42.650;23.248;2022-12-05T07:54:39;93447.50;;;3.95;88.62
53041;BME280;39326;42.650;23.248;2022-12-05T07:57:05;93445.03;;;3.89;88.86
53041;BME280;39326;42.650;23.248;2022-12-05T07:59:30;93436.00;;;3.91;89.34
53041;BME280;39326;42.650;23.248;2022-12-05T08:01:56;93440.66;;;3.94;89.05
53041;BME280;39326;42.650;23.248;2022-12-05T08:04:21;93440.50;;;3.99;89.03
53041;BME280;39326;42.650;23.248;2022-12-05T08:06:47;93440.50;;;3.99;89.01
53041;BME280;39326;42.650;23.248;2022-12-05T08:09:12;93448.59;;;3.85;89.69
53041;BME280;39326;42.650;23.248;2022-12-05T08:11:38;93450.66;;;4.09;89.29
53041;BME280;39326;42.650;23.248;2022-12-05T08:14:04;93448.09;;;4.00;89.71
53041;BME280;39326;42.650;23.248;2022-12-05T08:16:30;93452.72;;;4.12;89.11
53041;BME280;39326;42.650;23.248;2022-12-05T08:18:58;93452.97;;;4.10;89.43
53041;BME280;39326;42.650;23.248;2022-12-05T08:21:25;93446.56;;;3.91;90.09
53041;BME280;39326;42.650;23.248;2022-12-05T08:23:50;93452.75;;;3.95;89.81
53041;BME280;39326;42.650;23.248;2022-12-05T08:26:25;93448.66;;;4.14;89.50
53041;BME280;39326;42.650;23.248;2022-12-05T08:29:05;93449.38;;;4.24;89.26
53041;BME280;39326;42.650;23.248;2022-12-05T08:31:33;93445.75;;;4.28;88.78
53041;BME280;39326;42.650;23.248;2022-12-05T08:33:59;93445.22;;;4.44;88.79
53041;BME280;39326;42.650;23.248;2022-12-05T08:36:27;93451.44;;;4.39;88.61
53041;BME280;39326;42.650;23.248;2022-12-05T08:39:00;93454.03;;;4.48;88.08
53041;BME280;39326;42.650;23.248;2022-12-05T08:41:27;93449.84;;;4.47;88.16
53041;BME280;39326;42.650;23.248;2022-12-05T08:44:02;93446.00;;;4.44;87.93
53041;BME280;39326;42.650;23.248;2022-12-05T08:46:34;93446.50;;;4.58;87.11
53041;BME280;39326;42.650;23.248;2022-12-05T08:49:01;93445.28;;;4.56;87.27
53041;BME280;39326;42.650;23.248;2022-12-05T08:51:26;93447.78;;;4.52;86.96
53041;BME280;39326;42.650;23.248;2022-12-05T08:53:52;93448.56;;;4.53;86.69
53041;BME280;39326;42.650;23.248;2022-12-05T08:56:17;93452.28;;;4.52;86.83
53041;BME280;39326;42.650;23.248;2022-12-05T08:58:43;93447.78;;;4.52;86.70
53041;BME280;39326;42.650;23.248;2022-12-05T09:01:11;93450.34;;;4.40;86.31
53041;BME280;39326;42.650;23.248;2022-12-05T09:03:38;93457.34;;;4.36;86.13
53041;BME280;39326;42.650;23.248;2022-12-05T09:06:21;93447.38;;;4.41;86.51
53041;BME280;39326;42.650;23.248;2022-12-05T09:08:48;93453.44;;;4.42;87.27
53041;BME280;39326;42.650;23.248;2022-12-05T09:11:19;93450.50;;;4.64;86.75
53041;BME280;39326;42.650;23.248;2022-12-05T09:13:46;93450.81;;;4.63;86.08
53041;BME280;39326;42.650;23.248;2022-12-05T09:16:21;93452.00;;;4.74;85.59
53041;BME280;39326;42.650;23.248;2022-12-05T09:18:48;93450.22;;;4.78;85.78
53041;BME280;39326;42.650;23.248;2022-12-05T09:21:17;93444.44;;;4.64;85.68
53041;BME280;39326;42.650;23.248;2022-12-05T09:23:43;93443.41;;;4.77;85.18
53041;BME280;39326;42.650;23.248;2022-12-05T09:26:11;93440.84;;;4.68;85.44
53041;BME280;39326;42.650;23.248;2022-12-05T09:28:37;93439.00;;;4.60;86.00
53041;BME280;39326;42.650;23.248;2022-12-05T09:31:06;93433.28;;;4.79;85.08
53041;BME280;39326;42.650;23.248;2022-12-05T09:33:33;93437.88;;;4.70;85.32
53041;BME280;39326;42.650;23.248;2022-12-05T09:36:17;93438.84;;;4.86;84.82
53041;BME280;39326;42.650;23.248;2022-12-05T09:38:44;93420.78;;;4.88;84.59
53041;BME280;39326;42.650;23.248;2022-12-05T09:44:25;93430.75;;;4.83;84.91
53041;BME280;39326;42.650;23.248;2022-12-05T09:47:03;93430.25;;;4.89;84.64
53041;BME280;39326;42.650;23.248;2022-12-05T09:49:32;93423.66;;;4.95;83.90
53041;BME280;39326;42.650;23.248;2022-12-05T09:51:59;93424.47;;;5.08;83.79
53041;BME280;39326;42.650;23.248;2022-12-05T09:54:27;93415.44;;;5.09;83.41
53041;BME280;39326;42.650;23.248;2022-12-05T09:56:52;93413.75;;;5.05;83.83
53041;BME280;39326;42.650;23.248;2022-12-05T09:59:19;93395.31;;;4.84;83.85
53041;BME280;39326;42.650;23.248;2022-12-05T10:01:56;93405.94;;;4.96;84.31
53041;BME280;39326;42.650;23.248;2022-12-05T10:04:53;93400.63;;;4.96;84.07
53041;BME280;39326;42.650;23.248;2022-12-05T10:10:17;93398.47;;;4.77;84.66
53041;BME280;39326;42.650;23.248;2022-12-05T10:15:48;93406.78;;;4.88;84.26
53041;BME280;39326;42.650;23.248;2022-12-05T10:23:50;93389.91;;;4.80;84.43
53041;BME280;39326;42.650;23.248;2022-12-05T10:26:17;93398.56;;;4.68;85.07
53041;BME280;39326;42.650;23.248;2022-12-05T10:31:43;93392.91;;;4.91;84.06
53041;BME280;39326;42.650;23.248;2022-12-05T10:34:14;93389.97;;;5.05;83.76
53041;BME280;39326;42.650;23.248;2022-12-05T10:36:54;93388.22;;;5.09;83.63
53041;BME280;39326;42.650;23.248;2022-12-05T10:39:19;93392.84;;;5.00;83.77
53041;BME280;39326;42.650;23.248;2022-12-05T10:41:45;93390.78;;;4.84;83.85
53041;BME280;39326;42.650;23.248;2022-12-05T10:44:10;93379.06;;;4.94;83.83
53041;BME280;39326;42.650;23.248;2022-12-05T10:46:36;93382.94;;;5.09;83.66
53041;BME280;39326;42.650;23.248;2022-12-05T10:49:01;93379.16;;;4.98;84.06
53041;BME280;39326;42.650;23.248;2022-12-05T10:51:27;93379.41;;;5.05;83.73
53041;BME280;39326;42.650;23.248;2022-12-05T10:53:53;93376.22;;;4.99;83.82
53041;BME280;39326;42.650;23.248;2022-12-05T10:56:45;93385.69;;;5.00;83.81
53041;BME280;39326;42.650;23.248;2022-12-05T10:59:15;93369.81;;;5.00;83.68
53041;BME280;39326;42.650;23.248;2022-12-05T11:01:50;93372.78;;;4.99;83.81
53041;BME280;39326;42.650;23.248;2022-12-05T11:07:01;93370.47;;;4.97;83.98
53041;BME280;39326;42.650;23.248;2022-12-05T11:09:29;93367.06;;;4.96;84.15
53041;BME280;39326;42.650;23.248;2022-12-05T11:14:26;93362.94;;;5.20;83.60
53041;BME280;39326;42.650;23.248;2022-12-05T11:16:58;93360.84;;;5.26;83.54
53041;BME280;39326;42.650;23.248;2022-12-05T11:21:57;93357.72;;;5.23;82.76
53041;BME280;39326;42.650;23.248;2022-12-05T11:24:34;93358.19;;;5.26;82.21
53041;BME280;39326;42.650;23.248;2022-12-05T11:29:42;93351.13;;;5.05;83.54
53041;BME280;39326;42.650;23.248;2022-12-05T11:32:32;93355.41;;;5.10;83.09
53041;BME280;39326;42.650;23.248;2022-12-05T11:48:17;93317.97;;;5.08;83.36
53041;BME280;39326;42.650;23.248;2022-12-05T11:56:46;93316.66;;;5.26;82.65
53041;BME280;39326;42.650;23.248;2022-12-05T12:12:58;93301.91;;;5.25;82.78
53041;BME280;39326;42.650;23.248;2022-12-05T12:18:10;93301.69;;;5.18;83.02
53041;BME280;39326;42.650;23.248;2022-12-05T12:20:43;93296.47;;;5.09;83.50
53041;BME280;39326;42.650;23.248;2022-12-05T12:23:41;93292.31;;;5.20;82.94
53041;BME280;39326;42.650;23.248;2022-12-05T12:26:14;93294.28;;;5.23;83.23
53041;BME280;39326;42.650;23.248;2022-12-05T12:34:44;93274.22;;;5.10;83.08
53041;BME280;39326;42.650;23.248;2022-12-05T12:37:29;93279.22;;;5.24;83.40
53041;BME280;39326;42.650;23.248;2022-12-05T12:50:34;93264.97;;;5.29;82.63
53041;BME280;39326;42.650;23.248;2022-12-05T12:53:23;93275.75;;;5.23;83.16
53041;BME280;39326;42.650;23.248;2022-12-05T12:58:46;93271.28;;;5.24;83.15
53041;BME280;39326;42.650;23.248;2022-12-05T13:03:57;93272.81;;;5.13;83.83
53041;BME280;39326;42.650;23.248;2022-12-05T13:09:17;93262.78;;;5.06;83.93
53041;BME280;39326;42.650;23.248;2022-12-05T13:11:46;93266.06;;;5.03;84.56
53041;BME280;39326;42.650;23.248;2022-12-05T13:14:16;93268.16;;;4.98;84.83
53041;BME280;39326;42.650;23.248;2022-12-05T13:16:47;93268.06;;;4.94;84.64
53041;BME280;39326;42.650;23.248;2022-12-05T13:19:41;93267.50;;;4.88;84.75
53041;BME280;39326;42.650;23.248;2022-12-05T13:22:08;93270.69;;;4.94;84.51
53041;BME280;39326;42.650;23.248;2022-12-05T13:24:34;93272.88;;;4.92;84.63
53041;BME280;39326;42.650;23.248;2022-12-05T13:27:04;93264.94;;;4.92;84.81
53041;BME280;39326;42.650;23.248;2022-12-05T13:29:40;93272.13;;;4.91;84.96
53041;BME280;39326;42.650;23.248;2022-12-05T13:32:23;93271.34;;;5.03;84.14
53041;BME280;39326;42.650;23.248;2022-12-05T13:34:50;93275.75;;;4.87;84.89
53041;BME280;39326;42.650;23.248;2022-12-05T13:37:24;93282.25;;;4.89;84.37
53041;BME280;39326;42.650;23.248;2022-12-05T13:40:33;93276.19;;;4.89;84.76
53041;BME280;39326;42.650;23.248;2022-12-05T13:43:21;93273.22;;;4.90;85.13
53041;BME280;39326;42.650;23.248;2022-12-05T13:46:04;93273.19;;;4.78;84.97
53041;BME280;39326;42.650;23.248;2022-12-05T13:48:34;93273.75;;;4.72;85.77
53041;BME280;39326;42.650;23.248;2022-12-05T13:51:09;93272.75;;;4.64;86.29
53041;BME280;39326;42.650;23.248;2022-12-05T13:53:40;93274.38;;;4.56;86.45
53041;BME280;39326;42.650;23.248;2022-12-05T14:09:27;93275.28;;;4.73;85.98
53041;BME280;39326;42.650;23.248;2022-12-05T14:14:58;93285.09;;;4.39;87.38
53041;BME280;39326;42.650;23.248;2022-12-05T14:17:29;93288.50;;;4.39;87.41
53041;BME280;39326;42.650;23.248;2022-12-05T14:23:00;93283.44;;;4.34;87.48
53041;BME280;39326;42.650;23.248;2022-12-05T14:25:59;93277.38;;;4.34;88.23
53041;BME280;39326;42.650;23.248;2022-12-05T14:36:29;93276.56;;;4.21;88.42
53041;BME280;39326;42.650;23.248;2022-12-05T14:38:55;93288.56;;;4.10;89.12
53041;BME280;39326;42.650;23.248;2022-12-05T14:41:22;93282.03;;;3.95;89.44
53041;BME280;39326;42.650;23.248;2022-12-05T14:43:54;93284.06;;;4.10;89.64
53041;BME280;39326;42.650;23.248;2022-12-05T14:46:30;93287.97;;;4.13;89.18
53041;BME280;39326;42.650;23.248;2022-12-05T14:52:09;93280.94;;;4.17;88.93
53041;BME280;39326;42.650;23.248;2022-12-05T14:54:37;93282.75;;;4.25;88.73
53041;BME280;39326;42.650;23.248;2022-12-05T14:57:10;93284.91;;;4.23;88.61
53041;BME280;39326;42.650;23.248;2022-12-05T14:59:52;93282.69;;;4.13;89.50
53041;BME280;39326;42.650;23.248;2022-12-05T15:02:43;93285.34;;;4.04;89.03
53041;BME280;39326;42.650;23.248;2022-12-05T15:07:48;93287.44;;;3.99;89.89
53041;BME280;39326;42.650;23.248;2022-12-05T15:10:34;93293.50;;;3.99;90.25
53041;BME280;39326;42.650;23.248;2022-12-05T15:13:08;93290.91;;;3.91;90.73
53041;BME280;39326;42.650;23.248;2022-12-05T15:18:29;93283.63;;;4.08;89.76
53041;BME280;39326;42.650;23.248;2022-12-05T15:21:03;93282.53;;;4.09;89.67
53041;BME280;39326;42.650;23.248;2022-12-05T15:23:55;93279.00;;;4.05;89.51
53041;BME280;39326;42.650;23.248;2022-12-05T15:31:57;93277.44;;;4.04;89.97
53041;BME280;39326;42.650;23.248;2022-12-05T15:34:30;93269.75;;;3.99;90.40
53041;BME280;39326;42.650;23.248;2022-12-05T15:39:49;93274.00;;;4.12;89.17
53041;BME280;39326;42.650;23.248;2022-12-05T15:42:16;93270.09;;;4.10;89.47
53041;BME280;39326;42.650;23.248;2022-12-05T15:44:42;93279.38;;;4.16;88.79
53041;BME280;39326;42.650;23.248;2022-12-05T15:47:25;93277.44;;;4.04;89.30
53041;BME280;39326;42.650;23.248;2022-12-05T15:49:51;93271.47;;;4.16;89.41
53041;BME280;39326;42.650;23.248;2022-12-05T15:54:49;93276.47;;;4.09;89.25
53041;BME280;39326;42.650;23.248;2022-12-05T15:57:23;93276.56;;;4.21;88.96
53041;BME280;39326;42.650;23.248;2022-12-05T16:00:00;93275.97;;;4.15;89.28
53041;BME280;39326;42.650;23.248;2022-12-05T16:05:29;93271.09;;;4.26;88.80
53041;BME280;39326;42.650;23.248;2022-12-05T16:07:55;93272.06;;;4.22;88.96